Terminal Aerodrome Forecast
Issued by NWS Portland, OR

Home | Current Version | Previous Version | Text Only | Print | Product List | Glossary On
Versions: 1 2 3 4 5 6 7 8 9 10 11 12 13 14 15 16 17 18 19 20 21 22 23 24 25 26 27 28 29 30 31 32 33 34 35 36 37 38 39 40 41 42 43
000
FTUS46 KPQR 271746
TAFTTD
TAF
KTTD 271746Z 2718/2818 21005KT P6SM -SHRA SCT025 OVC035
     FM272000 VRB04KT P6SM -SHRAGS SCT020 OVC030
     FM280100 10007KT P6SM VCSH SCT035 BKN050
     FM280500 09011KT P6SM BKN090
     FM281600 09015G25KT P6SM BKN200=

USA.gov is the U.S. government's official web portal to all federal, state and local government web resources and services.